Terminal Aerodrome Forecast
Issued by NWS Omaha/Valley, NE

Home | Current Version | Previous Version | Text Only | Print | Product List | Glossary On
Versions: 1 2 3 4 5 6 7 8 9 10 11 12 13 14 15 16 17 18 19 20 21 22 23 24 25 26 27 28 29 30 31 32 33 34 35 36
000
FTUS43 KOAX 041725
TAFLNK
TAF
KLNK 041725Z 0418/0518 13008KT P6SM SCT020 SCT080
      TEMPO 0501/0504 4SM RA BKN040
     FM050400 13008KT P6SM VCSH SCT040 BKN080
     FM050800 15008KT P6SM BKN080
      TEMPO 0510/0513 5SM BR SCT011=

USA.gov is the U.S. government's official web portal to all federal, state and local government web resources and services.